Newton, New Jersey
Current Conditions -  °F | °C
As of 9:53 PM on Friday 19 Dec 2014 (Local Time) from KFWN Reporting Station
Overcast Overcast  
Wind Chill: 30°   Ceiling: 2400
Heat Index: 30°   Visibility: 10mi
Dew Point: 20°   Wind: 0mph
Humidity: 66%   Direction: NA
Pressure: 30.16"   Gusts: NA
Location:  41.06°N, 74.75°W
Report Text: KFWN 200253Z AUTO 00000KT 10SM OVC024 M01/M07 A3016 RMK AO2 SLP216 T10111067 53001
Loading
Personal Weather Stations






























Interactive Weather Map New forecast layout! Learn more

10-Day Weather Forecast

Advertisements
Track Severe Weather on mobile